sensor_id;sensor_type;location;lat;lon;timestamp;P1;durP1;ratioP1;P2;durP2;ratioP2
24637;SDS011;12773;50.162;8.548;2022-12-07T00:00:50;26.82;;;13.65;;
24637;SDS011;12773;50.162;8.548;2022-12-07T00:03:42;28.45;;;14.33;;
24637;SDS011;12773;50.162;8.548;2022-12-07T00:06:32;27.65;;;13.48;;
24637;SDS011;12773;50.162;8.548;2022-12-07T00:09:20;27.87;;;13.65;;
24637;SDS011;12773;50.162;8.548;2022-12-07T00:12:11;28.95;;;13.78;;
24637;SDS011;12773;50.162;8.548;2022-12-07T00:14:58;28.30;;;14.47;;
24637;SDS011;12773;50.162;8.548;2022-12-07T00:17:45;25.48;;;12.05;;
24637;SDS011;12773;50.162;8.548;2022-12-07T00:20:33;28.75;;;13.93;;
24637;SDS011;12773;50.162;8.548;2022-12-07T00:23:20;25.65;;;13.20;;
24637;SDS011;12773;50.162;8.548;2022-12-07T00:26:10;29.30;;;13.95;;
24637;SDS011;12773;50.162;8.548;2022-12-07T00:29:00;34.67;;;15.10;;
24637;SDS011;12773;50.162;8.548;2022-12-07T00:31:49;28.47;;;13.88;;
24637;SDS011;12773;50.162;8.548;2022-12-07T00:34:38;29.57;;;14.65;;
24637;SDS011;12773;50.162;8.548;2022-12-07T00:37:25;29.10;;;14.13;;
24637;SDS011;12773;50.162;8.548;2022-12-07T00:40:12;30.52;;;14.03;;
24637;SDS011;12773;50.162;8.548;2022-12-07T00:43:00;25.40;;;13.60;;
24637;SDS011;12773;50.162;8.548;2022-12-07T00:45:47;28.25;;;13.48;;
24637;SDS011;12773;50.162;8.548;2022-12-07T00:48:35;25.52;;;12.70;;
24637;SDS011;12773;50.162;8.548;2022-12-07T00:51:23;25.57;;;12.53;;
24637;SDS011;12773;50.162;8.548;2022-12-07T00:54:11;26.15;;;12.78;;
24637;SDS011;12773;50.162;8.548;2022-12-07T00:56:58;27.48;;;13.15;;
24637;SDS011;12773;50.162;8.548;2022-12-07T00:59:45;27.60;;;12.80;;
24637;SDS011;12773;50.162;8.548;2022-12-07T01:02:33;27.90;;;13.98;;
24637;SDS011;12773;50.162;8.548;2022-12-07T01:05:20;29.90;;;14.40;;
24637;SDS011;12773;50.162;8.548;2022-12-07T01:08:09;29.30;;;13.08;;
24637;SDS011;12773;50.162;8.548;2022-12-07T01:13:50;27.60;;;13.55;;
24637;SDS011;12773;50.162;8.548;2022-12-07T01:16:39;25.92;;;13.32;;
24637;SDS011;12773;50.162;8.548;2022-12-07T01:19:26;27.58;;;12.95;;
24637;SDS011;12773;50.162;8.548;2022-12-07T01:22:15;28.02;;;12.80;;
24637;SDS011;12773;50.162;8.548;2022-12-07T01:25:03;28.32;;;12.88;;
24637;SDS011;12773;50.162;8.548;2022-12-07T01:27:54;27.22;;;12.30;;
24637;SDS011;12773;50.162;8.548;2022-12-07T01:30:41;25.77;;;11.97;;
24637;SDS011;12773;50.162;8.548;2022-12-07T01:33:29;23.85;;;12.45;;
24637;SDS011;12773;50.162;8.548;2022-12-07T01:36:20;23.75;;;11.43;;
24637;SDS011;12773;50.162;8.548;2022-12-07T01:39:11;27.05;;;12.05;;
24637;SDS011;12773;50.162;8.548;2022-12-07T01:41:59;24.15;;;12.07;;
24637;SDS011;12773;50.162;8.548;2022-12-07T01:48:09;25.77;;;11.73;;
24637;SDS011;12773;50.162;8.548;2022-12-07T01:51:00;24.37;;;12.30;;
24637;SDS011;12773;50.162;8.548;2022-12-07T01:53:49;22.67;;;10.72;;
24637;SDS011;12773;50.162;8.548;2022-12-07T01:56:38;29.42;;;11.20;;
24637;SDS011;12773;50.162;8.548;2022-12-07T01:59:29;21.60;;;10.88;;
24637;SDS011;12773;50.162;8.548;2022-12-07T02:02:22;26.15;;;10.95;;
24637;SDS011;12773;50.162;8.548;2022-12-07T02:05:17;20.23;;;10.08;;
24637;SDS011;12773;50.162;8.548;2022-12-07T02:08:06;21.87;;;10.00;;
24637;SDS011;12773;50.162;8.548;2022-12-07T02:10:55;21.70;;;10.78;;
24637;SDS011;12773;50.162;8.548;2022-12-07T02:13:43;24.32;;;10.85;;
24637;SDS011;12773;50.162;8.548;2022-12-07T02:19:53;22.52;;;10.05;;
24637;SDS011;12773;50.162;8.548;2022-12-07T02:22:50;23.35;;;10.30;;
24637;SDS011;12773;50.162;8.548;2022-12-07T02:35:26;26.52;;;11.48;;
24637;SDS011;12773;50.162;8.548;2022-12-07T02:38:16;21.33;;;10.55;;
24637;SDS011;12773;50.162;8.548;2022-12-07T02:44:02;22.62;;;10.25;;
24637;SDS011;12773;50.162;8.548;2022-12-07T02:46:59;19.32;;;9.73;;
24637;SDS011;12773;50.162;8.548;2022-12-07T02:49:51;18.07;;;8.85;;
24637;SDS011;12773;50.162;8.548;2022-12-07T02:52:39;18.87;;;9.00;;
24637;SDS011;12773;50.162;8.548;2022-12-07T02:55:28;19.37;;;9.18;;
24637;SDS011;12773;50.162;8.548;2022-12-07T02:58:20;18.65;;;9.33;;
24637;SDS011;12773;50.162;8.548;2022-12-07T03:11:00;19.42;;;9.13;;
24637;SDS011;12773;50.162;8.548;2022-12-07T03:14:09;19.98;;;9.13;;
24637;SDS011;12773;50.162;8.548;2022-12-07T03:17:16;17.92;;;8.90;;
24637;SDS011;12773;50.162;8.548;2022-12-07T03:20:17;17.23;;;7.65;;
24637;SDS011;12773;50.162;8.548;2022-12-07T03:23:08;21.25;;;8.93;;
24637;SDS011;12773;50.162;8.548;2022-12-07T03:25:59;17.15;;;8.75;;
24637;SDS011;12773;50.162;8.548;2022-12-07T03:28:50;15.65;;;7.83;;
24637;SDS011;12773;50.162;8.548;2022-12-07T03:31:40;16.93;;;8.65;;
24637;SDS011;12773;50.162;8.548;2022-12-07T03:37:26;20.20;;;9.25;;
24637;SDS011;12773;50.162;8.548;2022-12-07T03:40:28;22.17;;;9.93;;
24637;SDS011;12773;50.162;8.548;2022-12-07T03:43:18;24.55;;;9.78;;
24637;SDS011;12773;50.162;8.548;2022-12-07T03:50:00;19.17;;;9.40;;
24637;SDS011;12773;50.162;8.548;2022-12-07T03:55:34;20.60;;;9.53;;
24637;SDS011;12773;50.162;8.548;2022-12-07T03:58:13;16.97;;;8.50;;
24637;SDS011;12773;50.162;8.548;2022-12-07T04:01:01;17.80;;;9.05;;
24637;SDS011;12773;50.162;8.548;2022-12-07T04:03:48;21.70;;;8.78;;
24637;SDS011;12773;50.162;8.548;2022-12-07T04:06:36;18.82;;;9.70;;
24637;SDS011;12773;50.162;8.548;2022-12-07T04:09:24;15.63;;;8.30;;
24637;SDS011;12773;50.162;8.548;2022-12-07T04:12:11;16.35;;;7.92;;
24637;SDS011;12773;50.162;8.548;2022-12-07T04:14:58;15.90;;;8.33;;
24637;SDS011;12773;50.162;8.548;2022-12-07T04:17:46;15.25;;;8.53;;
24637;SDS011;12773;50.162;8.548;2022-12-07T04:20:33;21.80;;;8.38;;
24637;SDS011;12773;50.162;8.548;2022-12-07T04:23:26;20.52;;;8.93;;
24637;SDS011;12773;50.162;8.548;2022-12-07T04:26:10;23.05;;;8.85;;
24637;SDS011;12773;50.162;8.548;2022-12-07T04:28:57;16.32;;;8.33;;
24637;SDS011;12773;50.162;8.548;2022-12-07T04:31:46;16.45;;;8.53;;
24637;SDS011;12773;50.162;8.548;2022-12-07T04:34:34;19.65;;;9.38;;
24637;SDS011;12773;50.162;8.548;2022-12-07T04:37:24;16.87;;;8.20;;
24637;SDS011;12773;50.162;8.548;2022-12-07T04:40:12;20.77;;;8.88;;
24637;SDS011;12773;50.162;8.548;2022-12-07T04:43:00;19.05;;;8.83;;
24637;SDS011;12773;50.162;8.548;2022-12-07T04:45:47;16.50;;;8.95;;
24637;SDS011;12773;50.162;8.548;2022-12-07T04:48:37;19.50;;;9.78;;
24637;SDS011;12773;50.162;8.548;2022-12-07T04:51:26;19.32;;;8.65;;
24637;SDS011;12773;50.162;8.548;2022-12-07T04:54:15;18.67;;;9.50;;
24637;SDS011;12773;50.162;8.548;2022-12-07T04:57:03;18.02;;;9.60;;
24637;SDS011;12773;50.162;8.548;2022-12-07T04:59:56;19.07;;;9.63;;
24637;SDS011;12773;50.162;8.548;2022-12-07T05:02:39;20.05;;;9.13;;
24637;SDS011;12773;50.162;8.548;2022-12-07T05:05:27;21.20;;;10.03;;
24637;SDS011;12773;50.162;8.548;2022-12-07T05:08:14;20.65;;;8.88;;
24637;SDS011;12773;50.162;8.548;2022-12-07T05:11:02;16.65;;;8.58;;
24637;SDS011;12773;50.162;8.548;2022-12-07T05:13:50;18.80;;;9.00;;
24637;SDS011;12773;50.162;8.548;2022-12-07T05:16:41;16.37;;;9.00;;
24637;SDS011;12773;50.162;8.548;2022-12-07T05:19:29;18.20;;;8.95;;
24637;SDS011;12773;50.162;8.548;2022-12-07T05:22:16;17.62;;;8.83;;
24637;SDS011;12773;50.162;8.548;2022-12-07T05:25:04;15.63;;;8.43;;
24637;SDS011;12773;50.162;8.548;2022-12-07T05:27:52;16.40;;;9.15;;
24637;SDS011;12773;50.162;8.548;2022-12-07T05:30:40;16.93;;;8.73;;
24637;SDS011;12773;50.162;8.548;2022-12-07T05:33:28;18.60;;;9.18;;
24637;SDS011;12773;50.162;8.548;2022-12-07T05:36:15;19.48;;;9.50;;
24637;SDS011;12773;50.162;8.548;2022-12-07T05:39:03;15.68;;;8.35;;
24637;SDS011;12773;50.162;8.548;2022-12-07T05:41:50;16.25;;;8.95;;
24637;SDS011;12773;50.162;8.548;2022-12-07T05:44:59;18.42;;;9.58;;
24637;SDS011;12773;50.162;8.548;2022-12-07T05:47:47;18.98;;;9.50;;
24637;SDS011;12773;50.162;8.548;2022-12-07T05:50:34;17.80;;;8.88;;
24637;SDS011;12773;50.162;8.548;2022-12-07T05:53:21;18.92;;;10.20;;
24637;SDS011;12773;50.162;8.548;2022-12-07T05:56:11;18.10;;;9.53;;
24637;SDS011;12773;50.162;8.548;2022-12-07T05:58:58;16.50;;;8.55;;
24637;SDS011;12773;50.162;8.548;2022-12-07T06:02:05;18.87;;;9.80;;
24637;SDS011;12773;50.162;8.548;2022-12-07T06:04:54;16.87;;;8.85;;
24637;SDS011;12773;50.162;8.548;2022-12-07T06:07:42;18.75;;;9.68;;
24637;SDS011;12773;50.162;8.548;2022-12-07T06:10:29;17.32;;;9.88;;
24637;SDS011;12773;50.162;8.548;2022-12-07T06:13:17;18.75;;;9.15;;
24637;SDS011;12773;50.162;8.548;2022-12-07T06:16:05;18.12;;;9.23;;
24637;SDS011;12773;50.162;8.548;2022-12-07T06:18:53;21.27;;;10.35;;
24637;SDS011;12773;50.162;8.548;2022-12-07T06:21:41;20.82;;;9.95;;
24637;SDS011;12773;50.162;8.548;2022-12-07T06:24:28;19.70;;;10.23;;
24637;SDS011;12773;50.162;8.548;2022-12-07T06:27:15;21.57;;;10.32;;
24637;SDS011;12773;50.162;8.548;2022-12-07T06:30:03;19.45;;;9.93;;
24637;SDS011;12773;50.162;8.548;2022-12-07T06:32:52;19.15;;;10.40;;
24637;SDS011;12773;50.162;8.548;2022-12-07T06:35:39;20.40;;;10.08;;
24637;SDS011;12773;50.162;8.548;2022-12-07T06:38:27;20.20;;;9.28;;
24637;SDS011;12773;50.162;8.548;2022-12-07T06:41:15;17.10;;;9.40;;
24637;SDS011;12773;50.162;8.548;2022-12-07T06:44:02;20.30;;;12.05;;
24637;SDS011;12773;50.162;8.548;2022-12-07T06:46:52;19.80;;;10.18;;
24637;SDS011;12773;50.162;8.548;2022-12-07T06:49:41;18.07;;;9.55;;
24637;SDS011;12773;50.162;8.548;2022-12-07T06:52:28;20.48;;;9.73;;
24637;SDS011;12773;50.162;8.548;2022-12-07T06:55:19;20.60;;;9.98;;
24637;SDS011;12773;50.162;8.548;2022-12-07T06:58:07;20.68;;;8.95;;
24637;SDS011;12773;50.162;8.548;2022-12-07T07:00:54;16.70;;;9.25;;
24637;SDS011;12773;50.162;8.548;2022-12-07T07:03:42;17.00;;;8.63;;
24637;SDS011;12773;50.162;8.548;2022-12-07T07:06:30;15.60;;;8.18;;
24637;SDS011;12773;50.162;8.548;2022-12-07T07:09:18;14.50;;;7.87;;
24637;SDS011;12773;50.162;8.548;2022-12-07T07:12:05;20.85;;;9.80;;
24637;SDS011;12773;50.162;8.548;2022-12-07T07:14:52;15.60;;;8.30;;
24637;SDS011;12773;50.162;8.548;2022-12-07T07:17:40;17.80;;;8.85;;
24637;SDS011;12773;50.162;8.548;2022-12-07T07:20:29;18.07;;;8.40;;
24637;SDS011;12773;50.162;8.548;2022-12-07T07:23:16;19.15;;;8.55;;
24637;SDS011;12773;50.162;8.548;2022-12-07T07:26:04;15.55;;;7.97;;
24637;SDS011;12773;50.162;8.548;2022-12-07T07:28:51;12.78;;;6.87;;
24637;SDS011;12773;50.162;8.548;2022-12-07T07:31:40;16.00;;;8.50;;
24637;SDS011;12773;50.162;8.548;2022-12-07T07:34:27;13.13;;;7.25;;
24637;SDS011;12773;50.162;8.548;2022-12-07T07:37:15;13.70;;;7.08;;
24637;SDS011;12773;50.162;8.548;2022-12-07T07:40:04;13.98;;;7.65;;
24637;SDS011;12773;50.162;8.548;2022-12-07T07:42:52;18.57;;;7.40;;
24637;SDS011;12773;50.162;8.548;2022-12-07T07:45:40;13.20;;;6.92;;
24637;SDS011;12773;50.162;8.548;2022-12-07T07:48:28;15.35;;;7.53;;
24637;SDS011;12773;50.162;8.548;2022-12-07T07:51:15;13.03;;;7.22;;
24637;SDS011;12773;50.162;8.548;2022-12-07T07:54:03;13.38;;;6.92;;
24637;SDS011;12773;50.162;8.548;2022-12-07T07:56:52;14.60;;;7.62;;
24637;SDS011;12773;50.162;8.548;2022-12-07T07:59:39;13.88;;;6.90;;
24637;SDS011;12773;50.162;8.548;2022-12-07T08:02:28;10.45;;;5.95;;
24637;SDS011;12773;50.162;8.548;2022-12-07T08:05:16;9.28;;;5.42;;
24637;SDS011;12773;50.162;8.548;2022-12-07T08:08:04;9.18;;;5.60;;
24637;SDS011;12773;50.162;8.548;2022-12-07T08:10:51;9.38;;;5.58;;
24637;SDS011;12773;50.162;8.548;2022-12-07T08:13:39;11.65;;;6.35;;
24637;SDS011;12773;50.162;8.548;2022-12-07T08:16:26;8.33;;;5.15;;
24637;SDS011;12773;50.162;8.548;2022-12-07T08:19:14;7.95;;;5.28;;
24637;SDS011;12773;50.162;8.548;2022-12-07T08:22:02;7.97;;;5.03;;
24637;SDS011;12773;50.162;8.548;2022-12-07T08:24:49;10.72;;;5.08;;
24637;SDS011;12773;50.162;8.548;2022-12-07T08:27:36;9.00;;;5.35;;
24637;SDS011;12773;50.162;8.548;2022-12-07T08:30:24;13.35;;;5.97;;
24637;SDS011;12773;50.162;8.548;2022-12-07T08:33:12;10.85;;;5.67;;
24637;SDS011;12773;50.162;8.548;2022-12-07T08:36:03;12.37;;;5.85;;
24637;SDS011;12773;50.162;8.548;2022-12-07T08:38:51;11.80;;;5.37;;
24637;SDS011;12773;50.162;8.548;2022-12-07T08:41:40;12.00;;;5.67;;
24637;SDS011;12773;50.162;8.548;2022-12-07T08:44:30;11.35;;;5.97;;
24637;SDS011;12773;50.162;8.548;2022-12-07T08:47:17;11.45;;;6.33;;
24637;SDS011;12773;50.162;8.548;2022-12-07T08:50:07;12.45;;;6.12;;
24637;SDS011;12773;50.162;8.548;2022-12-07T08:52:57;22.35;;;6.45;;
24637;SDS011;12773;50.162;8.548;2022-12-07T08:55:45;10.48;;;5.08;;
24637;SDS011;12773;50.162;8.548;2022-12-07T08:58:34;12.88;;;6.20;;
24637;SDS011;12773;50.162;8.548;2022-12-07T09:01:39;11.90;;;6.08;;
24637;SDS011;12773;50.162;8.548;2022-12-07T09:04:12;15.05;;;7.03;;
24637;SDS011;12773;50.162;8.548;2022-12-07T09:07:01;14.23;;;7.15;;
24637;SDS011;12773;50.162;8.548;2022-12-07T09:09:49;10.98;;;6.72;;
24637;SDS011;12773;50.162;8.548;2022-12-07T09:12:43;11.40;;;6.60;;
24637;SDS011;12773;50.162;8.548;2022-12-07T09:15:27;11.43;;;5.17;;
24637;SDS011;12773;50.162;8.548;2022-12-07T09:18:16;8.05;;;4.55;;
24637;SDS011;12773;50.162;8.548;2022-12-07T09:21:03;7.67;;;3.87;;
24637;SDS011;12773;50.162;8.548;2022-12-07T09:23:51;9.48;;;4.97;;
24637;SDS011;12773;50.162;8.548;2022-12-07T09:26:38;11.12;;;4.70;;
24637;SDS011;12773;50.162;8.548;2022-12-07T09:29:26;8.33;;;4.65;;
24637;SDS011;12773;50.162;8.548;2022-12-07T09:32:14;7.20;;;4.30;;
24637;SDS011;12773;50.162;8.548;2022-12-07T09:35:01;6.72;;;4.20;;
24637;SDS011;12773;50.162;8.548;2022-12-07T09:37:49;8.98;;;4.30;;
24637;SDS011;12773;50.162;8.548;2022-12-07T09:40:39;8.03;;;4.55;;
24637;SDS011;12773;50.162;8.548;2022-12-07T09:43:28;6.75;;;4.20;;
24637;SDS011;12773;50.162;8.548;2022-12-07T09:46:16;5.42;;;3.80;;
24637;SDS011;12773;50.162;8.548;2022-12-07T09:49:13;4.80;;;2.92;;
24637;SDS011;12773;50.162;8.548;2022-12-07T09:52:49;6.10;;;2.77;;
24637;SDS011;12773;50.162;8.548;2022-12-07T09:54:55;4.12;;;3.02;;
24637;SDS011;12773;50.162;8.548;2022-12-07T09:57:43;5.50;;;3.20;;
24637;SDS011;12773;50.162;8.548;2022-12-07T10:00:30;3.98;;;2.65;;
24637;SDS011;12773;50.162;8.548;2022-12-07T10:03:17;4.90;;;3.12;;
24637;SDS011;12773;50.162;8.548;2022-12-07T10:06:05;4.42;;;2.67;;
24637;SDS011;12773;50.162;8.548;2022-12-07T10:08:53;3.75;;;2.85;;
24637;SDS011;12773;50.162;8.548;2022-12-07T10:15:01;6.95;;;3.40;;
24637;SDS011;12773;50.162;8.548;2022-12-07T10:17:53;6.10;;;2.75;;
24637;SDS011;12773;50.162;8.548;2022-12-07T10:20:43;7.20;;;3.20;;
24637;SDS011;12773;50.162;8.548;2022-12-07T10:23:33;5.35;;;2.77;;
24637;SDS011;12773;50.162;8.548;2022-12-07T10:26:35;3.98;;;2.80;;
24637;SDS011;12773;50.162;8.548;2022-12-07T10:30:01;6.10;;;2.50;;
24637;SDS011;12773;50.162;8.548;2022-12-07T10:32:27;3.95;;;2.20;;
24637;SDS011;12773;50.162;8.548;2022-12-07T10:35:21;4.35;;;2.15;;
24637;SDS011;12773;50.162;8.548;2022-12-07T10:38:15;6.72;;;2.40;;
24637;SDS011;12773;50.162;8.548;2022-12-07T10:41:06;3.98;;;2.70;;
24637;SDS011;12773;50.162;8.548;2022-12-07T10:43:55;5.75;;;2.17;;
24637;SDS011;12773;50.162;8.548;2022-12-07T10:46:50;6.53;;;2.15;;
24637;SDS011;12773;50.162;8.548;2022-12-07T10:52:42;5.65;;;2.10;;
24637;SDS011;12773;50.162;8.548;2022-12-07T10:58:52;5.75;;;2.40;;
24637;SDS011;12773;50.162;8.548;2022-12-07T11:05:10;6.12;;;2.67;;
24637;SDS011;12773;50.162;8.548;2022-12-07T11:08:09;4.70;;;2.40;;
24637;SDS011;12773;50.162;8.548;2022-12-07T11:11:09;6.30;;;2.62;;
24637;SDS011;12773;50.162;8.548;2022-12-07T11:14:19;4.83;;;2.70;;
24637;SDS011;12773;50.162;8.548;2022-12-07T11:17:32;20.15;;;3.47;;
24637;SDS011;12773;50.162;8.548;2022-12-07T11:26:30;7.25;;;2.85;;
24637;SDS011;12773;50.162;8.548;2022-12-07T11:33:06;6.70;;;2.58;;
24637;SDS011;12773;50.162;8.548;2022-12-07T11:39:31;9.33;;;2.77;;
24637;SDS011;12773;50.162;8.548;2022-12-07T11:42:29;6.67;;;1.95;;
24637;SDS011;12773;50.162;8.548;2022-12-07T11:45:16;4.83;;;2.27;;
24637;SDS011;12773;50.162;8.548;2022-12-07T11:51:10;5.87;;;2.27;;
24637;SDS011;12773;50.162;8.548;2022-12-07T11:53:59;7.47;;;2.15;;
24637;SDS011;12773;50.162;8.548;2022-12-07T11:56:59;6.45;;;2.35;;
24637;SDS011;12773;50.162;8.548;2022-12-07T11:59:50;3.52;;;1.80;;
24637;SDS011;12773;50.162;8.548;2022-12-07T12:02:57;4.58;;;1.52;;
24637;SDS011;12773;50.162;8.548;2022-12-07T12:05:42;5.00;;;1.67;;
24637;SDS011;12773;50.162;8.548;2022-12-07T12:08:38;3.77;;;1.60;;
24637;SDS011;12773;50.162;8.548;2022-12-07T12:17:59;2.85;;;1.20;;
24637;SDS011;12773;50.162;8.548;2022-12-07T12:20:50;1.95;;;1.22;;
24637;SDS011;12773;50.162;8.548;2022-12-07T12:23:48;3.00;;;1.47;;
24637;SDS011;12773;50.162;8.548;2022-12-07T12:26:52;4.08;;;1.70;;
24637;SDS011;12773;50.162;8.548;2022-12-07T12:29:42;8.38;;;1.67;;
24637;SDS011;12773;50.162;8.548;2022-12-07T12:35:32;2.60;;;1.30;;
24637;SDS011;12773;50.162;8.548;2022-12-07T12:44:43;5.42;;;1.70;;
24637;SDS011;12773;50.162;8.548;2022-12-07T12:50:40;3.58;;;1.32;;
24637;SDS011;12773;50.162;8.548;2022-12-07T12:53:27;2.58;;;1.22;;
24637;SDS011;12773;50.162;8.548;2022-12-07T12:56:21;4.45;;;1.50;;
24637;SDS011;12773;50.162;8.548;2022-12-07T12:59:24;2.85;;;1.32;;
24637;SDS011;12773;50.162;8.548;2022-12-07T13:02:31;5.30;;;1.60;;
24637;SDS011;12773;50.162;8.548;2022-12-07T13:05:19;9.33;;;1.55;;
24637;SDS011;12773;50.162;8.548;2022-12-07T13:08:17;2.87;;;1.25;;
24637;SDS011;12773;50.162;8.548;2022-12-07T13:11:18;3.63;;;1.30;;
24637;SDS011;12773;50.162;8.548;2022-12-07T13:26:37;2.65;;;1.50;;
24637;SDS011;12773;50.162;8.548;2022-12-07T13:29:27;6.75;;;1.17;;
24637;SDS011;12773;50.162;8.548;2022-12-07T13:32:23;1.65;;;1.17;;
24637;SDS011;12773;50.162;8.548;2022-12-07T13:35:32;2.20;;;1.30;;
24637;SDS011;12773;50.162;8.548;2022-12-07T13:38:24;4.28;;;1.45;;
24637;SDS011;12773;50.162;8.548;2022-12-07T13:41:26;5.33;;;1.47;;
24637;SDS011;12773;50.162;8.548;2022-12-07T13:44:16;4.42;;;1.40;;
24637;SDS011;12773;50.162;8.548;2022-12-07T13:47:11;2.00;;;1.20;;
24637;SDS011;12773;50.162;8.548;2022-12-07T13:49:57;3.15;;;1.30;;
24637;SDS011;12773;50.162;8.548;2022-12-07T13:52:45;3.08;;;1.12;;
24637;SDS011;12773;50.162;8.548;2022-12-07T13:55:33;4.22;;;1.45;;
24637;SDS011;12773;50.162;8.548;2022-12-07T13:58:25;6.72;;;1.40;;
24637;SDS011;12773;50.162;8.548;2022-12-07T14:01:14;7.28;;;1.55;;
24637;SDS011;12773;50.162;8.548;2022-12-07T14:04:18;4.55;;;1.80;;
24637;SDS011;12773;50.162;8.548;2022-12-07T14:07:19;5.58;;;1.65;;
24637;SDS011;12773;50.162;8.548;2022-12-07T14:10:24;7.60;;;2.00;;
24637;SDS011;12773;50.162;8.548;2022-12-07T14:16:28;6.03;;;1.67;;
24637;SDS011;12773;50.162;8.548;2022-12-07T14:19:38;4.35;;;1.60;;
24637;SDS011;12773;50.162;8.548;2022-12-07T14:22:37;2.98;;;1.57;;
24637;SDS011;12773;50.162;8.548;2022-12-07T14:25:31;3.90;;;1.30;;
24637;SDS011;12773;50.162;8.548;2022-12-07T14:31:17;2.65;;;1.07;;
24637;SDS011;12773;50.162;8.548;2022-12-07T14:34:19;4.72;;;1.20;;
24637;SDS011;12773;50.162;8.548;2022-12-07T14:37:02;4.12;;;1.40;;
24637;SDS011;12773;50.162;8.548;2022-12-07T14:39:51;5.58;;;1.70;;
24637;SDS011;12773;50.162;8.548;2022-12-07T14:42:38;7.75;;;1.70;;
24637;SDS011;12773;50.162;8.548;2022-12-07T14:45:26;6.10;;;2.00;;
24637;SDS011;12773;50.162;8.548;2022-12-07T14:48:15;5.30;;;2.17;;
24637;SDS011;12773;50.162;8.548;2022-12-07T14:51:04;4.35;;;2.22;;
24637;SDS011;12773;50.162;8.548;2022-12-07T14:53:54;5.33;;;2.75;;
24637;SDS011;12773;50.162;8.548;2022-12-07T14:56:42;6.20;;;3.47;;
24637;SDS011;12773;50.162;8.548;2022-12-07T14:59:31;9.83;;;2.80;;
24637;SDS011;12773;50.162;8.548;2022-12-07T15:02:18;7.08;;;2.72;;
24637;SDS011;12773;50.162;8.548;2022-12-07T15:05:07;5.90;;;2.72;;
24637;SDS011;12773;50.162;8.548;2022-12-07T15:07:56;7.55;;;3.12;;
24637;SDS011;12773;50.162;8.548;2022-12-07T15:10:43;5.90;;;2.60;;
24637;SDS011;12773;50.162;8.548;2022-12-07T15:13:31;7.62;;;2.90;;
24637;SDS011;12773;50.162;8.548;2022-12-07T15:16:41;4.47;;;2.40;;
24637;SDS011;12773;50.162;8.548;2022-12-07T15:19:30;7.40;;;2.80;;
24637;SDS011;12773;50.162;8.548;2022-12-07T15:22:18;4.50;;;2.12;;
24637;SDS011;12773;50.162;8.548;2022-12-07T15:25:08;6.53;;;2.22;;
24637;SDS011;12773;50.162;8.548;2022-12-07T15:27:58;6.00;;;2.30;;
24637;SDS011;12773;50.162;8.548;2022-12-07T15:30:46;6.25;;;2.80;;
24637;SDS011;12773;50.162;8.548;2022-12-07T15:33:33;10.28;;;2.85;;
24637;SDS011;12773;50.162;8.548;2022-12-07T15:36:25;7.50;;;2.60;;
24637;SDS011;12773;50.162;8.548;2022-12-07T15:39:17;6.90;;;2.30;;
24637;SDS011;12773;50.162;8.548;2022-12-07T15:42:05;5.42;;;1.95;;
24637;SDS011;12773;50.162;8.548;2022-12-07T15:44:55;6.37;;;2.62;;
24637;SDS011;12773;50.162;8.548;2022-12-07T15:50:42;5.87;;;2.22;;
24637;SDS011;12773;50.162;8.548;2022-12-07T15:53:29;4.95;;;2.87;;
24637;SDS011;12773;50.162;8.548;2022-12-07T15:56:18;6.75;;;2.75;;
24637;SDS011;12773;50.162;8.548;2022-12-07T15:59:06;4.92;;;2.00;;
24637;SDS011;12773;50.162;8.548;2022-12-07T16:01:54;8.35;;;2.27;;
24637;SDS011;12773;50.162;8.548;2022-12-07T16:04:41;4.55;;;2.00;;
24637;SDS011;12773;50.162;8.548;2022-12-07T16:07:28;4.33;;;2.22;;
24637;SDS011;12773;50.162;8.548;2022-12-07T16:10:16;4.78;;;2.00;;
24637;SDS011;12773;50.162;8.548;2022-12-07T16:13:03;3.87;;;1.85;;
24637;SDS011;12773;50.162;8.548;2022-12-07T16:15:50;8.55;;;2.05;;
24637;SDS011;12773;50.162;8.548;2022-12-07T16:18:41;5.00;;;1.80;;
24637;SDS011;12773;50.162;8.548;2022-12-07T16:21:30;5.15;;;1.90;;
24637;SDS011;12773;50.162;8.548;2022-12-07T16:24:18;4.28;;;1.87;;
24637;SDS011;12773;50.162;8.548;2022-12-07T16:27:07;5.10;;;2.12;;
24637;SDS011;12773;50.162;8.548;2022-12-07T16:29:55;5.22;;;2.37;;
24637;SDS011;12773;50.162;8.548;2022-12-07T16:32:42;6.87;;;2.30;;
24637;SDS011;12773;50.162;8.548;2022-12-07T16:35:29;8.15;;;2.85;;
24637;SDS011;12773;50.162;8.548;2022-12-07T16:38:17;4.90;;;2.98;;
24637;SDS011;12773;50.162;8.548;2022-12-07T16:41:05;7.28;;;3.05;;
24637;SDS011;12773;50.162;8.548;2022-12-07T16:43:53;11.20;;;3.20;;
24637;SDS011;12773;50.162;8.548;2022-12-07T16:46:41;6.60;;;2.83;;
24637;SDS011;12773;50.162;8.548;2022-12-07T16:49:29;7.70;;;3.80;;
24637;SDS011;12773;50.162;8.548;2022-12-07T16:52:16;11.18;;;4.40;;
24637;SDS011;12773;50.162;8.548;2022-12-07T16:55:06;6.42;;;3.15;;
24637;SDS011;12773;50.162;8.548;2022-12-07T16:57:53;9.45;;;3.33;;
24637;SDS011;12773;50.162;8.548;2022-12-07T17:00:42;7.45;;;3.27;;
24637;SDS011;12773;50.162;8.548;2022-12-07T17:03:30;9.13;;;3.65;;
24637;SDS011;12773;50.162;8.548;2022-12-07T17:09:07;7.50;;;2.45;;
24637;SDS011;12773;50.162;8.548;2022-12-07T17:11:58;6.00;;;2.60;;
24637;SDS011;12773;50.162;8.548;2022-12-07T17:14:46;4.35;;;2.87;;
24637;SDS011;12773;50.162;8.548;2022-12-07T17:17:56;6.58;;;2.75;;
24637;SDS011;12773;50.162;8.548;2022-12-07T17:20:44;5.05;;;2.83;;
24637;SDS011;12773;50.162;8.548;2022-12-07T17:23:31;6.00;;;2.90;;
24637;SDS011;12773;50.162;8.548;2022-12-07T17:26:25;4.95;;;2.85;;
24637;SDS011;12773;50.162;8.548;2022-12-07T17:29:11;7.08;;;3.25;;
24637;SDS011;12773;50.162;8.548;2022-12-07T17:32:00;6.17;;;3.12;;
24637;SDS011;12773;50.162;8.548;2022-12-07T17:34:48;4.30;;;2.92;;
24637;SDS011;12773;50.162;8.548;2022-12-07T17:37:35;7.22;;;3.00;;
24637;SDS011;12773;50.162;8.548;2022-12-07T17:40:24;6.17;;;2.87;;
24637;SDS011;12773;50.162;8.548;2022-12-07T17:43:18;7.50;;;2.87;;
24637;SDS011;12773;50.162;8.548;2022-12-07T17:46:11;6.10;;;3.05;;
24637;SDS011;12773;50.162;8.548;2022-12-07T17:48:54;6.53;;;2.95;;
24637;SDS011;12773;50.162;8.548;2022-12-07T17:51:42;7.10;;;3.77;;
24637;SDS011;12773;50.162;8.548;2022-12-07T17:54:48;8.63;;;3.58;;
24637;SDS011;12773;50.162;8.548;2022-12-07T17:57:35;5.83;;;3.33;;
24637;SDS011;12773;50.162;8.548;2022-12-07T18:00:23;6.45;;;2.90;;
24637;SDS011;12773;50.162;8.548;2022-12-07T18:03:10;9.55;;;3.70;;
24637;SDS011;12773;50.162;8.548;2022-12-07T18:05:59;13.25;;;7.17;;
24637;SDS011;12773;50.162;8.548;2022-12-07T18:08:46;8.08;;;4.53;;
24637;SDS011;12773;50.162;8.548;2022-12-07T18:11:34;6.58;;;3.72;;
24637;SDS011;12773;50.162;8.548;2022-12-07T18:14:21;12.20;;;4.10;;
24637;SDS011;12773;50.162;8.548;2022-12-07T18:17:10;10.43;;;3.33;;
24637;SDS011;12773;50.162;8.548;2022-12-07T18:19:57;7.75;;;3.27;;
24637;SDS011;12773;50.162;8.548;2022-12-07T18:22:44;10.13;;;2.77;;
24637;SDS011;12773;50.162;8.548;2022-12-07T18:25:32;8.80;;;3.05;;
24637;SDS011;12773;50.162;8.548;2022-12-07T18:28:19;8.95;;;3.35;;
24637;SDS011;12773;50.162;8.548;2022-12-07T18:31:08;10.50;;;4.47;;
24637;SDS011;12773;50.162;8.548;2022-12-07T18:34:06;9.28;;;3.87;;
24637;SDS011;12773;50.162;8.548;2022-12-07T18:36:56;14.28;;;5.60;;
24637;SDS011;12773;50.162;8.548;2022-12-07T18:39:43;14.15;;;6.17;;
24637;SDS011;12773;50.162;8.548;2022-12-07T18:42:30;18.40;;;8.18;;
24637;SDS011;12773;50.162;8.548;2022-12-07T18:45:18;22.13;;;9.55;;
24637;SDS011;12773;50.162;8.548;2022-12-07T18:48:08;18.50;;;7.85;;